sensor_id;sensor_type;location;lat;lon;timestamp;pressure;altitude;pressure_sealevel;temperature;humidity
49377;BME280;35253;34.688;33.040;2022-10-30T00:00:16;100930.91;;;21.82;100.00
49377;BME280;35253;34.688;33.040;2022-10-30T00:02:41;100926.97;;;21.76;100.00
49377;BME280;35253;34.688;33.040;2022-10-30T00:05:07;100930.69;;;21.57;100.00
49377;BME280;35253;34.688;33.040;2022-10-30T00:07:33;100926.19;;;21.66;100.00
49377;BME280;35253;34.688;33.040;2022-10-30T00:09:58;100928.00;;;21.57;100.00
49377;BME280;35253;34.688;33.040;2022-10-30T00:12:23;100914.88;;;21.53;100.00
49377;BME280;35253;34.688;33.040;2022-10-30T00:14:49;100913.88;;;21.54;100.00
49377;BME280;35253;34.688;33.040;2022-10-30T00:17:14;100908.34;;;21.46;100.00
49377;BME280;35253;34.688;33.040;2022-10-30T00:19:40;100906.50;;;21.29;100.00
49377;BME280;35253;34.688;33.040;2022-10-30T00:22:05;100916.75;;;21.35;100.00
49377;BME280;35253;34.688;33.040;2022-10-30T00:24:31;100920.50;;;21.24;100.00
49377;BME280;35253;34.688;33.040;2022-10-30T00:26:56;100925.47;;;21.29;100.00
49377;BME280;35253;34.688;33.040;2022-10-30T00:29:22;100920.44;;;21.34;100.00
49377;BME280;35253;34.688;33.040;2022-10-30T00:31:51;100916.03;;;21.33;100.00
49377;BME280;35253;34.688;33.040;2022-10-30T00:34:16;100918.44;;;21.36;100.00
49377;BME280;35253;34.688;33.040;2022-10-30T00:36:41;100923.81;;;21.45;100.00
49377;BME280;35253;34.688;33.040;2022-10-30T00:39:07;100921.56;;;21.41;100.00
49377;BME280;35253;34.688;33.040;2022-10-30T00:41:32;100925.09;;;21.24;100.00
49377;BME280;35253;34.688;33.040;2022-10-30T00:43:58;100940.59;;;21.13;100.00
49377;BME280;35253;34.688;33.040;2022-10-30T00:46:25;100937.03;;;21.03;100.00
49377;BME280;35253;34.688;33.040;2022-10-30T00:48:59;100925.78;;;20.98;100.00
49377;BME280;35253;34.688;33.040;2022-10-30T00:51:27;100926.03;;;21.15;100.00
49377;BME280;35253;34.688;33.040;2022-10-30T00:53:53;100928.81;;;21.23;100.00
49377;BME280;35253;34.688;33.040;2022-10-30T00:56:20;100925.34;;;21.30;100.00
49377;BME280;35253;34.688;33.040;2022-10-30T00:58:50;100929.59;;;21.33;100.00
49377;BME280;35253;34.688;33.040;2022-10-30T01:01:18;100920.50;;;21.24;100.00
49377;BME280;35253;34.688;33.040;2022-10-30T01:03:45;100924.47;;;21.30;100.00
49377;BME280;35253;34.688;33.040;2022-10-30T01:06:13;100930.22;;;21.27;100.00
49377;BME280;35253;34.688;33.040;2022-10-30T01:08:40;100928.66;;;21.24;100.00
49377;BME280;35253;34.688;33.040;2022-10-30T01:11:06;100925.03;;;21.33;100.00
49377;BME280;35253;34.688;33.040;2022-10-30T01:13:32;100929.03;;;21.29;100.00
49377;BME280;35253;34.688;33.040;2022-10-30T01:16:12;100914.47;;;21.30;100.00
49377;BME280;35253;34.688;33.040;2022-10-30T01:36:54;100910.00;;;21.11;100.00
49377;BME280;35253;34.688;33.040;2022-10-30T01:39:22;100920.28;;;21.18;100.00
49377;BME280;35253;34.688;33.040;2022-10-30T01:41:49;100918.44;;;21.18;100.00
49377;BME280;35253;34.688;33.040;2022-10-30T01:44:17;100910.00;;;21.11;100.00
49377;BME280;35253;34.688;33.040;2022-10-30T01:46:50;100908.59;;;21.07;100.00
49377;BME280;35253;34.688;33.040;2022-10-30T01:49:40;100903.19;;;21.07;100.00
49377;BME280;35253;34.688;33.040;2022-10-30T01:57:20;100894.38;;;21.05;100.00
49377;BME280;35253;34.688;33.040;2022-10-30T02:02:13;100897.22;;;21.04;100.00
49377;BME280;35253;34.688;33.040;2022-10-30T02:04:38;100889.84;;;20.96;100.00
49377;BME280;35253;34.688;33.040;2022-10-30T02:07:04;100893.16;;;20.90;100.00
49377;BME280;35253;34.688;33.040;2022-10-30T02:09:29;100888.47;;;20.92;100.00
49377;BME280;35253;34.688;33.040;2022-10-30T02:11:55;100890.47;;;20.90;100.00
49377;BME280;35253;34.688;33.040;2022-10-30T02:14:26;100887.38;;;20.76;100.00
49377;BME280;35253;34.688;33.040;2022-10-30T02:16:53;100886.25;;;20.78;100.00
49377;BME280;35253;34.688;33.040;2022-10-30T02:19:20;100890.28;;;20.74;100.00
49377;BME280;35253;34.688;33.040;2022-10-30T02:21:45;100886.56;;;20.75;100.00
49377;BME280;35253;34.688;33.040;2022-10-30T02:24:11;100887.97;;;20.79;100.00
49377;BME280;35253;34.688;33.040;2022-10-30T02:26:36;100884.84;;;20.74;100.00
49377;BME280;35253;34.688;33.040;2022-10-30T02:29:02;100883.69;;;20.77;100.00
49377;BME280;35253;34.688;33.040;2022-10-30T02:31:27;100884.81;;;20.84;100.00
49377;BME280;35253;34.688;33.040;2022-10-30T02:33:53;100886.25;;;20.78;100.00
49377;BME280;35253;34.688;33.040;2022-10-30T02:36:18;100884.22;;;20.80;100.00
49377;BME280;35253;34.688;33.040;2022-10-30T02:38:44;100889.38;;;20.83;100.00
49377;BME280;35253;34.688;33.040;2022-10-30T02:41:09;100885.03;;;20.90;100.00
49377;BME280;35253;34.688;33.040;2022-10-30T02:43:35;100887.06;;;20.88;100.00
49377;BME280;35253;34.688;33.040;2022-10-30T02:46:00;100891.84;;;20.94;100.00
49377;BME280;35253;34.688;33.040;2022-10-30T02:48:26;100891.25;;;21.00;100.00
49377;BME280;35253;34.688;33.040;2022-10-30T02:50:51;100889.22;;;21.02;100.00
49377;BME280;35253;34.688;33.040;2022-10-30T02:53:17;100893.25;;;20.98;100.00
49377;BME280;35253;34.688;33.040;2022-10-30T02:55:42;100892.19;;;21.09;100.00
49377;BME280;35253;34.688;33.040;2022-10-30T02:58:08;100888.91;;;20.88;100.00
49377;BME280;35253;34.688;33.040;2022-10-30T03:00:34;100894.06;;;21.08;100.00
49377;BME280;35253;34.688;33.040;2022-10-30T03:02:59;100896.72;;;20.91;100.00
49377;BME280;35253;34.688;33.040;2022-10-30T03:05:25;100896.50;;;20.84;100.00
49377;BME280;35253;34.688;33.040;2022-10-30T03:07:50;100892.13;;;21.01;100.00
49377;BME280;35253;34.688;33.040;2022-10-30T03:10:16;100897.59;;;20.91;100.00
49377;BME280;35253;34.688;33.040;2022-10-30T03:12:42;100902.28;;;20.89;100.00
49377;BME280;35253;34.688;33.040;2022-10-30T03:15:08;100903.31;;;20.88;100.00
49377;BME280;35253;34.688;33.040;2022-10-30T03:17:33;100909.03;;;20.85;100.00
49377;BME280;35253;34.688;33.040;2022-10-30T03:19:59;100895.28;;;20.96;100.00
49377;BME280;35253;34.688;33.040;2022-10-30T03:22:24;100903.00;;;20.91;100.00
49377;BME280;35253;34.688;33.040;2022-10-30T03:24:50;100903.00;;;20.91;100.00
49377;BME280;35253;34.688;33.040;2022-10-30T03:27:15;100890.47;;;20.90;100.00
49377;BME280;35253;34.688;33.040;2022-10-30T03:29:40;100891.22;;;20.83;100.00
49377;BME280;35253;34.688;33.040;2022-10-30T03:32:09;100889.22;;;21.02;100.00
49377;BME280;35253;34.688;33.040;2022-10-30T03:34:35;100896.19;;;20.87;100.00
49377;BME280;35253;34.688;33.040;2022-10-30T03:37:01;100887.97;;;20.79;100.00
49377;BME280;35253;34.688;33.040;2022-10-30T03:39:26;100891.16;;;20.92;100.00
49377;BME280;35253;34.688;33.040;2022-10-30T03:41:51;100897.03;;;20.88;100.00
49377;BME280;35253;34.688;33.040;2022-10-30T03:44:17;100891.56;;;20.97;100.00
49377;BME280;35253;34.688;33.040;2022-10-30T03:46:42;100888.38;;;21.02;100.00
49377;BME280;35253;34.688;33.040;2022-10-30T03:49:08;100904.34;;;21.05;100.00
49377;BME280;35253;34.688;33.040;2022-10-30T03:51:33;100895.06;;;21.07;100.00
49377;BME280;35253;34.688;33.040;2022-10-30T03:53:59;100904.91;;;21.08;100.00
49377;BME280;35253;34.688;33.040;2022-10-30T03:56:24;100902.31;;;21.17;100.00
49377;BME280;35253;34.688;33.040;2022-10-30T03:58:49;100908.56;;;20.90;100.00
49377;BME280;35253;34.688;33.040;2022-10-30T04:01:15;100915.06;;;20.79;100.00
49377;BME280;35253;34.688;33.040;2022-10-30T04:03:40;100913.00;;;20.91;100.00
49377;BME280;35253;34.688;33.040;2022-10-30T04:06:06;100913.03;;;20.81;100.00
49377;BME280;35253;34.688;33.040;2022-10-30T04:08:32;100922.38;;;20.96;100.00
49377;BME280;35253;34.688;33.040;2022-10-30T04:10:57;100913.00;;;20.91;100.00
49377;BME280;35253;34.688;33.040;2022-10-30T04:13:23;100914.84;;;20.90;100.00
49377;BME280;35253;34.688;33.040;2022-10-30T04:15:48;100920.38;;;20.98;100.00
49377;BME280;35253;34.688;33.040;2022-10-30T04:18:14;100924.66;;;21.01;100.00
49377;BME280;35253;34.688;33.040;2022-10-30T04:20:40;100917.56;;;20.90;100.00
49377;BME280;35253;34.688;33.040;2022-10-30T04:23:06;100922.66;;;20.93;100.00
49377;BME280;35253;34.688;33.040;2022-10-30T04:25:32;100923.63;;;21.02;100.00
49377;BME280;35253;34.688;33.040;2022-10-30T04:27:59;100917.47;;;21.09;100.00
49377;BME280;35253;34.688;33.040;2022-10-30T04:30:24;100929.75;;;21.04;100.00
49377;BME280;35253;34.688;33.040;2022-10-30T04:32:54;100928.31;;;21.09;100.00
49377;BME280;35253;34.688;33.040;2022-10-30T04:35:21;100922.03;;;21.09;100.00
49377;BME280;35253;34.688;33.040;2022-10-30T04:38:00;100921.72;;;21.12;100.00
49377;BME280;35253;34.688;33.040;2022-10-30T04:40:30;100935.50;;;21.01;100.00
49377;BME280;35253;34.688;33.040;2022-10-30T04:42:56;100932.97;;;20.90;100.00
49377;BME280;35253;34.688;33.040;2022-10-30T04:45:21;100928.44;;;21.08;100.00
49377;BME280;35253;34.688;33.040;2022-10-30T04:47:47;100924.72;;;21.09;100.00
49377;BME280;35253;34.688;33.040;2022-10-30T04:50:12;100936.16;;;21.12;100.00
49377;BME280;35253;34.688;33.040;2022-10-30T04:52:38;100931.69;;;21.21;100.00
49377;BME280;35253;34.688;33.040;2022-10-30T04:55:04;100933.63;;;21.29;100.00
49377;BME280;35253;34.688;33.040;2022-10-30T04:57:30;100931.69;;;21.39;100.00
49377;BME280;35253;34.688;33.040;2022-10-30T04:59:56;100935.47;;;21.46;100.00
49377;BME280;35253;34.688;33.040;2022-10-30T05:02:21;100936.19;;;21.48;100.00
49377;BME280;35253;34.688;33.040;2022-10-30T05:04:46;100942.34;;;21.50;100.00
49377;BME280;35253;34.688;33.040;2022-10-30T05:07:12;100931.16;;;21.53;100.00
49377;BME280;35253;34.688;33.040;2022-10-30T05:09:38;100941.69;;;21.56;100.00
49377;BME280;35253;34.688;33.040;2022-10-30T05:12:03;100934.56;;;21.55;100.00
49377;BME280;35253;34.688;33.040;2022-10-30T05:14:29;100937.44;;;21.71;100.00
49377;BME280;35253;34.688;33.040;2022-10-30T05:16:55;100939.06;;;21.64;100.00
49377;BME280;35253;34.688;33.040;2022-10-30T05:19:20;100945.19;;;21.66;100.00
49377;BME280;35253;34.688;33.040;2022-10-30T05:21:46;100947.50;;;21.79;100.00
49377;BME280;35253;34.688;33.040;2022-10-30T05:24:11;100950.09;;;21.80;100.00
49377;BME280;35253;34.688;33.040;2022-10-30T05:26:37;100944.72;;;21.88;100.00
49377;BME280;35253;34.688;33.040;2022-10-30T05:29:02;100953.63;;;21.98;100.00
49377;BME280;35253;34.688;33.040;2022-10-30T05:31:28;100946.53;;;21.97;100.00
49377;BME280;35253;34.688;33.040;2022-10-30T05:33:53;100948.44;;;22.05;100.00
49377;BME280;35253;34.688;33.040;2022-10-30T05:36:18;100952.22;;;22.12;100.00
49377;BME280;35253;34.688;33.040;2022-10-30T05:38:44;100952.88;;;22.06;100.00
49377;BME280;35253;34.688;33.040;2022-10-30T05:41:10;100953.78;;;22.15;100.00
49377;BME280;35253;34.688;33.040;2022-10-30T05:43:36;100956.88;;;22.20;100.00
49377;BME280;35253;34.688;33.040;2022-10-30T05:46:02;100966.47;;;22.32;100.00
49377;BME280;35253;34.688;33.040;2022-10-30T05:48:27;100961.94;;;22.40;100.00
49377;BME280;35253;34.688;33.040;2022-10-30T05:50:54;100962.84;;;22.49;100.00
49377;BME280;35253;34.688;33.040;2022-10-30T05:53:19;100953.88;;;22.57;100.00
49377;BME280;35253;34.688;33.040;2022-10-30T05:55:45;100956.81;;;22.63;100.00
49377;BME280;35253;34.688;33.040;2022-10-30T05:58:10;100960.22;;;22.65;100.00
49377;BME280;35253;34.688;33.040;2022-10-30T06:00:35;100957.94;;;22.78;100.00
49377;BME280;35253;34.688;33.040;2022-10-30T06:03:02;100966.50;;;22.91;100.00
49377;BME280;35253;34.688;33.040;2022-10-30T06:05:32;100970.75;;;22.94;100.00
49377;BME280;35253;34.688;33.040;2022-10-30T06:07:57;100960.06;;;23.01;100.00
49377;BME280;35253;34.688;33.040;2022-10-30T06:10:23;100960.09;;;23.09;100.00
49377;BME280;35253;34.688;33.040;2022-10-30T06:12:52;100960.31;;;23.15;100.00
49377;BME280;35253;34.688;33.040;2022-10-30T06:15:18;100961.34;;;23.22;100.00
49377;BME280;35253;34.688;33.040;2022-10-30T06:17:43;100964.63;;;23.34;100.00
49377;BME280;35253;34.688;33.040;2022-10-30T06:20:09;100962.94;;;23.41;100.00
49377;BME280;35253;34.688;33.040;2022-10-30T06:22:34;100959.25;;;23.50;100.00
49377;BME280;35253;34.688;33.040;2022-10-30T06:24:59;100973.56;;;23.60;100.00
49377;BME280;35253;34.688;33.040;2022-10-30T06:27:25;100971.34;;;23.64;100.00
49377;BME280;35253;34.688;33.040;2022-10-30T06:29:50;100962.31;;;23.71;100.00
49377;BME280;35253;34.688;33.040;2022-10-30T06:32:19;100952.44;;;23.78;100.00
49377;BME280;35253;34.688;33.040;2022-10-30T06:34:44;100965.56;;;23.83;100.00
49377;BME280;35253;34.688;33.040;2022-10-30T06:37:09;100962.34;;;23.88;100.00
49377;BME280;35253;34.688;33.040;2022-10-30T06:39:35;100958.59;;;23.97;100.00
49377;BME280;35253;34.688;33.040;2022-10-30T06:42:01;100953.50;;;24.02;100.00
49377;BME280;35253;34.688;33.040;2022-10-30T06:44:26;100949.91;;;24.09;100.00
49377;BME280;35253;34.688;33.040;2022-10-30T06:46:52;100955.56;;;24.16;100.00
49377;BME280;35253;34.688;33.040;2022-10-30T06:49:18;100950.78;;;24.26;100.00
49377;BME280;35253;34.688;33.040;2022-10-30T06:51:43;100945.97;;;24.36;99.89
49377;BME280;35253;34.688;33.040;2022-10-30T06:54:08;100951.59;;;24.43;100.00
49377;BME280;35253;34.688;33.040;2022-10-30T06:56:34;100945.97;;;24.52;98.92
49377;BME280;35253;34.688;33.040;2022-10-30T06:58:59;100941.31;;;24.69;94.99
49377;BME280;35253;34.688;33.040;2022-10-30T07:01:25;100946.91;;;24.76;93.22
49377;BME280;35253;34.688;33.040;2022-10-30T07:03:50;100931.88;;;24.80;93.26
49377;BME280;35253;34.688;33.040;2022-10-30T07:06:16;100938.38;;;24.87;88.46
49377;BME280;35253;34.688;33.040;2022-10-30T07:08:42;100941.41;;;25.00;87.01
49377;BME280;35253;34.688;33.040;2022-10-30T07:11:07;100941.72;;;25.05;80.69
49377;BME280;35253;34.688;33.040;2022-10-30T07:13:32;100937.91;;;25.14;79.79
49377;BME280;35253;34.688;33.040;2022-10-30T07:15:58;100936.53;;;25.18;76.47
49377;BME280;35253;34.688;33.040;2022-10-30T07:18:23;100937.13;;;25.28;75.07
49377;BME280;35253;34.688;33.040;2022-10-30T07:20:52;100937.91;;;25.45;77.42
49377;BME280;35253;34.688;33.040;2022-10-30T07:23:18;100937.00;;;25.52;78.90
49377;BME280;35253;34.688;33.040;2022-10-30T07:25:43;100941.78;;;25.50;79.07
49377;BME280;35253;34.688;33.040;2022-10-30T07:28:09;100947.75;;;25.54;78.48
49377;BME280;35253;34.688;33.040;2022-10-30T07:30:34;100948.00;;;25.67;77.82
49377;BME280;35253;34.688;33.040;2022-10-30T07:33:00;100945.41;;;25.74;74.65
49377;BME280;35253;34.688;33.040;2022-10-30T07:35:26;100948.00;;;25.90;69.53
49377;BME280;35253;34.688;33.040;2022-10-30T07:37:51;100939.38;;;26.01;67.42
49377;BME280;35253;34.688;33.040;2022-10-30T07:40:17;100948.59;;;26.00;66.03
49377;BME280;35253;34.688;33.040;2022-10-30T07:42:43;100937.41;;;26.10;66.73
49377;BME280;35253;34.688;33.040;2022-10-30T07:45:08;100939.22;;;26.17;65.16
49377;BME280;35253;34.688;33.040;2022-10-30T07:47:43;100935.34;;;26.12;65.97
49377;BME280;35253;34.688;33.040;2022-10-30T07:50:08;100945.66;;;26.24;91.56
49377;BME280;35253;34.688;33.040;2022-10-30T07:52:35;100930.97;;;25.88;95.81
49377;BME280;35253;34.688;33.040;2022-10-30T07:55:00;100937.81;;;25.84;94.96
49377;BME280;35253;34.688;33.040;2022-10-30T07:57:26;100928.88;;;25.90;92.61
49377;BME280;35253;34.688;33.040;2022-10-30T07:59:52;100931.19;;;26.01;91.85
49377;BME280;35253;34.688;33.040;2022-10-30T08:02:18;100922.22;;;26.07;93.44
49377;BME280;35253;34.688;33.040;2022-10-30T08:04:43;100924.09;;;26.07;91.85
49377;BME280;35253;34.688;33.040;2022-10-30T08:07:08;100923.69;;;26.18;79.96
49377;BME280;35253;34.688;33.040;2022-10-30T08:09:34;100931.03;;;26.17;79.62
49377;BME280;35253;34.688;33.040;2022-10-30T08:11:59;100927.44;;;26.17;81.84
49377;BME280;35253;34.688;33.040;2022-10-30T08:14:25;100923.44;;;26.27;86.28
49377;BME280;35253;34.688;33.040;2022-10-30T08:16:50;100926.81;;;26.29;83.49
49377;BME280;35253;34.688;33.040;2022-10-30T08:19:16;100934.22;;;26.43;77.97
49377;BME280;35253;34.688;33.040;2022-10-30T08:21:41;100925.63;;;26.46;75.31
49377;BME280;35253;34.688;33.040;2022-10-30T08:24:07;100918.91;;;26.64;81.66
49377;BME280;35253;34.688;33.040;2022-10-30T08:26:32;100925.91;;;26.66;100.00
49377;BME280;35253;34.688;33.040;2022-10-30T08:28:58;100923.75;;;26.62;100.00
49377;BME280;35253;34.688;33.040;2022-10-30T08:31:23;100919.50;;;26.59;100.00
49377;BME280;35253;34.688;33.040;2022-10-30T08:33:49;100926.03;;;26.58;100.00
49377;BME280;35253;34.688;33.040;2022-10-30T08:36:14;100920.91;;;26.55;100.00
49377;BME280;35253;34.688;33.040;2022-10-30T08:38:40;100911.50;;;26.58;100.00
49377;BME280;35253;34.688;33.040;2022-10-30T08:41:05;100910.81;;;26.56;98.43
49377;BME280;35253;34.688;33.040;2022-10-30T08:43:31;100904.59;;;26.62;100.00
49377;BME280;35253;34.688;33.040;2022-10-30T08:45:56;100902.50;;;26.64;98.11
49377;BME280;35253;34.688;33.040;2022-10-30T08:48:22;100905.84;;;26.88;94.32
49377;BME280;35253;34.688;33.040;2022-10-30T08:50:47;100898.16;;;26.84;93.19
49377;BME280;35253;34.688;33.040;2022-10-30T08:53:13;100894.50;;;26.92;87.52
49377;BME280;35253;34.688;33.040;2022-10-30T08:55:39;100896.66;;;26.96;85.65
49377;BME280;35253;34.688;33.040;2022-10-30T08:58:05;100892.50;;;27.00;80.39
49377;BME280;35253;34.688;33.040;2022-10-30T09:00:30;100889.19;;;27.05;80.64
49377;BME280;35253;34.688;33.040;2022-10-30T09:02:56;100893.34;;;27.15;78.65
49377;BME280;35253;34.688;33.040;2022-10-30T09:05:23;100889.91;;;27.28;74.55
49377;BME280;35253;34.688;33.040;2022-10-30T09:07:48;100883.03;;;27.53;72.91
49377;BME280;35253;34.688;33.040;2022-10-30T09:10:14;100891.50;;;27.58;69.80
49377;BME280;35253;34.688;33.040;2022-10-30T09:12:39;100886.59;;;27.54;67.96
49377;BME280;35253;34.688;33.040;2022-10-30T09:15:05;100879.47;;;27.38;65.27
49377;BME280;35253;34.688;33.040;2022-10-30T09:17:31;100881.59;;;27.43;65.54
49377;BME280;35253;34.688;33.040;2022-10-30T09:19:56;100880.88;;;27.49;64.18
49377;BME280;35253;34.688;33.040;2022-10-30T09:22:22;100879.16;;;27.48;63.20
49377;BME280;35253;34.688;33.040;2022-10-30T09:24:47;100877.34;;;27.55;61.58
49377;BME280;35253;34.688;33.040;2022-10-30T09:27:13;100872.50;;;27.57;59.95
49377;BME280;35253;34.688;33.040;2022-10-30T09:29:38;100868.34;;;27.61;59.88
49377;BME280;35253;34.688;33.040;2022-10-30T09:32:04;100867.16;;;27.70;59.63
49377;BME280;35253;34.688;33.040;2022-10-30T09:34:37;100868.81;;;27.64;60.18
49377;BME280;35253;34.688;33.040;2022-10-30T09:37:03;100863.25;;;27.58;60.79
49377;BME280;35253;34.688;33.040;2022-10-30T09:39:29;100861.63;;;27.63;62.64
49377;BME280;35253;34.688;33.040;2022-10-30T09:42:02;100864.50;;;27.76;60.54
49377;BME280;35253;34.688;33.040;2022-10-30T09:44:47;100860.66;;;27.99;58.47
49377;BME280;35253;34.688;33.040;2022-10-30T09:55:26;100860.44;;;28.00;63.25
49377;BME280;35253;34.688;33.040;2022-10-30T10:00:22;100853.50;;;28.04;64.30
49377;BME280;35253;34.688;33.040;2022-10-30T10:05:40;100844.38;;;28.18;63.78
49377;BME280;35253;34.688;33.040;2022-10-30T10:08:08;100838.56;;;28.35;62.66
49377;BME280;35253;34.688;33.040;2022-10-30T10:10:41;100852.81;;;28.17;63.12
49377;BME280;35253;34.688;33.040;2022-10-30T10:13:15;100839.72;;;28.53;63.37
49377;BME280;35253;34.688;33.040;2022-10-30T10:18:30;100849.16;;;28.44;66.69
49377;BME280;35253;34.688;33.040;2022-10-30T10:20:59;100839.78;;;28.26;66.65
49377;BME280;35253;34.688;33.040;2022-10-30T10:25:52;100833.16;;;28.48;68.02
49377;BME280;35253;34.688;33.040;2022-10-30T10:28:29;100837.16;;;28.93;69.60
49377;BME280;35253;34.688;33.040;2022-10-30T10:36:43;100826.22;;;28.99;70.31
49377;BME280;35253;34.688;33.040;2022-10-30T10:43:49;100817.59;;;28.61;64.66
49377;BME280;35253;34.688;33.040;2022-10-30T10:48:56;100814.41;;;29.19;64.61
49377;BME280;35253;34.688;33.040;2022-10-30T10:51:35;100818.63;;;29.15;65.81
49377;BME280;35253;34.688;33.040;2022-10-30T10:54:04;100814.00;;;29.28;66.05
49377;BME280;35253;34.688;33.040;2022-10-30T10:56:33;100816.97;;;29.14;65.06
49377;BME280;35253;34.688;33.040;2022-10-30T10:59:00;100807.31;;;29.31;64.00
49377;BME280;35253;34.688;33.040;2022-10-30T11:01:33;100814.00;;;29.28;65.53
49377;BME280;35253;34.688;33.040;2022-10-30T11:04:14;100810.69;;;29.39;64.99
49377;BME280;35253;34.688;33.040;2022-10-30T11:06:45;100810.69;;;29.33;66.04
49377;BME280;35253;34.688;33.040;2022-10-30T11:09:16;100813.59;;;29.25;66.45
49377;BME280;35253;34.688;33.040;2022-10-30T11:11:46;100798.88;;;29.39;66.03
49377;BME280;35253;34.688;33.040;2022-10-30T11:14:19;100798.44;;;29.62;66.29
49377;BME280;35253;34.688;33.040;2022-10-30T11:19:19;100792.50;;;29.32;66.47
49377;BME280;35253;34.688;33.040;2022-10-30T11:21:47;100789.97;;;29.30;65.90
49377;BME280;35253;34.688;33.040;2022-10-30T11:24:26;100792.69;;;29.24;62.88
49377;BME280;35253;34.688;33.040;2022-10-30T11:26:53;100781.91;;;29.29;62.98
49377;BME280;35253;34.688;33.040;2022-10-30T11:29:21;100780.69;;;29.38;59.77
49377;BME280;35253;34.688;33.040;2022-10-30T11:31:57;100788.63;;;29.06;59.91
49377;BME280;35253;34.688;33.040;2022-10-30T11:34:43;100795.63;;;29.16;59.72
49377;BME280;35253;34.688;33.040;2022-10-30T11:37:27;100792.50;;;29.32;55.02
49377;BME280;35253;34.688;33.040;2022-10-30T11:40:04;100797.59;;;29.35;54.13
49377;BME280;35253;34.688;33.040;2022-10-30T11:42:30;100786.59;;;29.35;54.66
49377;BME280;35253;34.688;33.040;2022-10-30T11:44:56;100792.31;;;29.46;53.24
49377;BME280;35253;34.688;33.040;2022-10-30T11:47:24;100780.91;;;29.56;51.76
49377;BME280;35253;34.688;33.040;2022-10-30T11:49:56;100777.94;;;29.51;50.97
49377;BME280;35253;34.688;33.040;2022-10-30T11:52:23;100779.00;;;29.50;50.21
49377;BME280;35253;34.688;33.040;2022-10-30T11:54:51;100772.66;;;29.30;50.92
49377;BME280;35253;34.688;33.040;2022-10-30T11:57:22;100779.38;;;29.27;51.36
49377;BME280;35253;34.688;33.040;2022-10-30T11:59:49;100781.03;;;29.15;52.35
49377;BME280;35253;34.688;33.040;2022-10-30T12:04:45;100778.38;;;29.61;52.70
49377;BME280;35253;34.688;33.040;2022-10-30T12:09:48;100770.50;;;29.25;53.29
49377;BME280;35253;34.688;33.040;2022-10-30T12:12:33;100773.94;;;29.47;52.43
49377;BME280;35253;34.688;33.040;2022-10-30T12:15:16;100769.91;;;29.36;53.30
49377;BME280;35253;34.688;33.040;2022-10-30T12:17:52;100768.84;;;29.50;52.47
49377;BME280;35253;34.688;33.040;2022-10-30T12:20:17;100765.69;;;29.47;52.21
49377;BME280;35253;34.688;33.040;2022-10-30T12:22:43;100770.91;;;29.29;53.07
49377;BME280;35253;34.688;33.040;2022-10-30T12:25:41;100762.75;;;29.48;51.76
49377;BME280;35253;34.688;33.040;2022-10-30T12:28:03;100764.63;;;29.48;51.85
49377;BME280;35253;34.688;33.040;2022-10-30T12:30:31;100768.00;;;29.37;51.54
49377;BME280;35253;34.688;33.040;2022-10-30T12:35:47;100752.53;;;29.23;54.87
49377;BME280;35253;34.688;33.040;2022-10-30T12:38:16;100751.69;;;29.29;54.47
49377;BME280;35253;34.688;33.040;2022-10-30T12:40:45;100753.63;;;29.54;53.83
49377;BME280;35253;34.688;33.040;2022-10-30T12:43:22;100754.47;;;29.55;53.23
49377;BME280;35253;34.688;33.040;2022-10-30T12:45:49;100754.69;;;29.47;54.64
49377;BME280;35253;34.688;33.040;2022-10-30T12:48:30;100751.91;;;29.73;53.83
49377;BME280;35253;34.688;33.040;2022-10-30T12:55:59;100757.22;;;29.75;52.25
49377;BME280;35253;34.688;33.040;2022-10-30T13:01:04;100755.69;;;29.20;53.44
49377;BME280;35253;34.688;33.040;2022-10-30T13:03:46;100760.38;;;29.26;52.21
49377;BME280;35253;34.688;33.040;2022-10-30T13:06:17;100766.13;;;29.31;51.69
49377;BME280;35253;34.688;33.040;2022-10-30T13:13:57;100757.00;;;29.37;50.29
49377;BME280;35253;34.688;33.040;2022-10-30T13:16:27;100766.72;;;29.46;49.81
49377;BME280;35253;34.688;33.040;2022-10-30T13:19:00;100766.91;;;29.11;50.43
49377;BME280;35253;34.688;33.040;2022-10-30T13:24:11;100767.94;;;29.04;51.67
49377;BME280;35253;34.688;33.040;2022-10-30T13:26:41;100773.84;;;29.14;50.00
49377;BME280;35253;34.688;33.040;2022-10-30T13:50:31;100684.63;;;30.53;44.60
49377;BME280;35253;34.688;33.040;2022-10-30T13:53:02;100717.22;;;30.56;45.19
49377;BME280;35253;34.688;33.040;2022-10-30T13:55:33;100764.63;;;29.61;47.64
49377;BME280;35253;34.688;33.040;2022-10-30T14:03:12;100774.47;;;28.96;50.20
49377;BME280;35253;34.688;33.040;2022-10-30T14:08:09;100767.47;;;28.81;49.51
49377;BME280;35253;34.688;33.040;2022-10-30T14:10:44;100772.22;;;28.59;49.23
49377;BME280;35253;34.688;33.040;2022-10-30T14:13:21;100766.69;;;28.46;49.28
49377;BME280;35253;34.688;33.040;2022-10-30T14:15:59;100768.94;;;28.01;50.70
49377;BME280;35253;34.688;33.040;2022-10-30T14:18:26;100768.63;;;28.11;51.46
49377;BME280;35253;34.688;33.040;2022-10-30T14:20:53;100775.63;;;27.92;50.99
49377;BME280;35253;34.688;33.040;2022-10-30T14:28:33;100771.59;;;27.88;49.93
49377;BME280;35253;34.688;33.040;2022-10-30T14:31:06;100773.38;;;27.68;49.82
49377;BME280;35253;34.688;33.040;2022-10-30T14:33:41;100784.00;;;27.56;50.49